createdAt,value
2023-03-29T00:00:47.865Z,93766.03
2023-03-29T00:03:16.731Z,93775.69
2023-03-29T00:05:45.023Z,93777.38
2023-03-29T00:08:14.972Z,93799.56
2023-03-29T00:10:43.208Z,93798.91
2023-03-29T00:13:11.483Z,93783.06
2023-03-29T00:15:39.532Z,93788.28
2023-03-29T00:18:07.445Z,93789.09
2023-03-29T00:20:35.645Z,93789.28
2023-03-29T00:23:03.739Z,93786.72
2023-03-29T00:25:31.639Z,93808.69
2023-03-29T00:27:59.490Z,93812.84
2023-03-29T00:30:27.496Z,93812.66
2023-03-29T00:32:55.452Z,93814.19
2023-03-29T00:35:23.601Z,93805.59
2023-03-29T00:37:53.207Z,93809.00
2023-03-29T00:40:21.381Z,93811.97
2023-03-29T00:42:51.320Z,93814.41
2023-03-29T00:45:21.220Z,93808.22
2023-03-29T00:47:52.106Z,93796.78
2023-03-29T00:50:41.917Z,93813.47
2023-03-29T00:53:18.015Z,93803.81
2023-03-29T00:56:12.177Z,93810.88
2023-03-29T00:58:42.720Z,93805.53
2023-03-29T01:01:16.898Z,93806.78
2023-03-29T01:03:54.706Z,93791.25
2023-03-29T01:06:26.329Z,93789.63
2023-03-29T01:08:58.686Z,93786.56
2023-03-29T01:11:37.054Z,93802.81
2023-03-29T01:14:13.016Z,93798.16
2023-03-29T01:16:41.644Z,93799.13
2023-03-29T01:19:15.903Z,93803.19
2023-03-29T01:22:06.031Z,93799.56
2023-03-29T01:24:51.468Z,93813.66
2023-03-29T01:27:37.999Z,93800.72
2023-03-29T01:30:21.566Z,93816.03
2023-03-29T01:32:57.222Z,93819.94
2023-03-29T01:35:43.960Z,93810.31
2023-03-29T01:38:30.823Z,93811.59
2023-03-29T01:40:58.720Z,93814.56
2023-03-29T01:43:36.467Z,93811.97
2023-03-29T01:46:10.760Z,93825.19
2023-03-29T01:48:52.568Z,93820.63
2023-03-29T01:51:42.145Z,93820.28
2023-03-29T01:54:18.504Z,93816.53
2023-03-29T01:56:50.044Z,93823.75
2023-03-29T01:59:23.479Z,93825.88
2023-03-29T02:01:57.729Z,93810.06
2023-03-29T02:04:34.836Z,93825.41
2023-03-29T02:07:06.215Z,93824.59
2023-03-29T02:09:37.390Z,93814.13
2023-03-29T02:12:08.102Z,93831.44
2023-03-29T02:14:36.694Z,93841.09
2023-03-29T02:17:28.061Z,93828.81
2023-03-29T02:20:02.364Z,93828.81
2023-03-29T02:22:48.591Z,93837.97
2023-03-29T02:25:17.716Z,93843.19
2023-03-29T02:27:46.418Z,93839.00
2023-03-29T02:30:17.477Z,93845.53
2023-03-29T02:33:02.166Z,93831.44
2023-03-29T02:35:38.678Z,93867.09
2023-03-29T02:38:11.600Z,93850.75
2023-03-29T02:40:42.912Z,93847.66
2023-03-29T02:43:14.276Z,93836.91
2023-03-29T02:45:44.501Z,93850.06
2023-03-29T02:48:17.644Z,93841.88
2023-03-29T02:50:50.166Z,93851.19
2023-03-29T02:56:27.925Z,93848.13
2023-03-29T02:58:56.220Z,93856.28
2023-03-29T03:01:24.732Z,93849.16
2023-03-29T03:03:52.973Z,93862.16
2023-03-29T03:06:21.765Z,93866.53
2023-03-29T03:08:51.273Z,93868.34
2023-03-29T03:11:19.149Z,93868.00
2023-03-29T03:13:47.556Z,93872.59
2023-03-29T03:16:16.085Z,93873.38
2023-03-29T03:18:46.099Z,93877.28
2023-03-29T03:21:14.058Z,93883.53
2023-03-29T03:23:42.295Z,93879.09
2023-03-29T03:26:10.920Z,93883.81
2023-03-29T03:28:40.305Z,93882.03
2023-03-29T03:31:14.475Z,93889.06
2023-03-29T03:34:05.370Z,93894.28
2023-03-29T03:36:56.156Z,93889.06
2023-03-29T03:39:24.202Z,93895.94
2023-03-29T03:41:52.672Z,93894.66
2023-03-29T03:44:20.836Z,93882.44
2023-03-29T03:46:57.996Z,93883.81
2023-03-29T03:49:25.890Z,93903.34
2023-03-29T03:51:54.345Z,93910.75
2023-03-29T03:54:22.476Z,93883.97
2023-03-29T03:57:16.785Z,93906.84
2023-03-29T03:59:50.236Z,93908.66
2023-03-29T04:02:27.053Z,93908.81
2023-03-29T04:04:55.355Z,93923.34
2023-03-29T04:07:30.536Z,93903.44
2023-03-29T04:10:21.705Z,93913.38
2023-03-29T04:13:04.908Z,93915.34
2023-03-29T04:15:39.457Z,93920.72
2023-03-29T04:18:10.697Z,93920.91
2023-03-29T04:20:46.284Z,93921.75
2023-03-29T04:23:16.718Z,93923.50
2023-03-29T04:25:46.091Z,93922.38
2023-03-29T04:28:33.630Z,93923.84
2023-03-29T04:31:14.691Z,93924.66
2023-03-29T04:33:52.261Z,93927.94
2023-03-29T04:36:20.966Z,93918.78
2023-03-29T04:38:49.043Z,93926.63
2023-03-29T04:41:17.555Z,93903.75
2023-03-29T04:44:07.074Z,93924.00
2023-03-29T04:46:35.945Z,93929.22
2023-03-29T04:49:22.482Z,93922.69
2023-03-29T04:51:54.641Z,93930.69
2023-03-29T04:54:27.568Z,93929.50
2023-03-29T04:57:18.524Z,93933.75
2023-03-29T04:59:56.774Z,93948.44
2023-03-29T05:02:46.385Z,93940.56
2023-03-29T05:05:16.233Z,93941.91
2023-03-29T05:07:48.191Z,93956.63
2023-03-29T05:10:20.465Z,93950.88
2023-03-29T05:12:54.283Z,93947.88
2023-03-29T05:15:23.992Z,93962.75
2023-03-29T05:17:52.139Z,93974.53
2023-03-29T05:20:20.042Z,93958.16
2023-03-29T05:22:49.065Z,93970.25
2023-03-29T05:25:37.385Z,93969.59
2023-03-29T05:28:05.687Z,93968.63
2023-03-29T05:30:34.031Z,93968.28
2023-03-29T05:33:10.761Z,93972.56
2023-03-29T05:35:39.964Z,93978.75
2023-03-29T05:38:09.575Z,93975.72
2023-03-29T05:40:37.994Z,93987.88
2023-03-29T05:43:31.905Z,93980.03
2023-03-29T05:46:00.518Z,93994.88
2023-03-29T05:48:30.159Z,93984.66
2023-03-29T05:50:58.124Z,94007.97
2023-03-29T05:53:29.996Z,94004.28
2023-03-29T05:55:58.059Z,93994.91
2023-03-29T05:58:28.855Z,94023.00
2023-03-29T06:00:57.427Z,94020.09
2023-03-29T06:03:49.746Z,94019.91
2023-03-29T06:06:21.618Z,94022.88
2023-03-29T06:08:50.872Z,94002.69
2023-03-29T06:11:24.681Z,94013.84
2023-03-29T06:14:23.534Z,94007.16
2023-03-29T06:17:01.977Z,94025.03
2023-03-29T06:19:30.060Z,94013.56
2023-03-29T06:21:58.179Z,94031.69
2023-03-29T06:24:29.342Z,94030.44
2023-03-29T06:27:03.501Z,94027.78
2023-03-29T06:29:32.176Z,94030.63
2023-03-29T06:32:00.463Z,94032.00
2023-03-29T06:34:49.218Z,94026.44
2023-03-29T06:37:26.744Z,94036.13
2023-03-29T06:40:07.697Z,94028.56
2023-03-29T06:42:42.589Z,94038.06
2023-03-29T06:45:31.762Z,94027.59
2023-03-29T06:48:03.362Z,94026.66
2023-03-29T06:50:32.795Z,94030.78
2023-03-29T06:53:09.319Z,94022.78
2023-03-29T06:55:37.563Z,94033.34
2023-03-29T06:58:35.906Z,94033.56
2023-03-29T07:01:11.822Z,94018.31
2023-03-29T07:03:51.255Z,94022.16
2023-03-29T07:06:25.081Z,94028.41
2023-03-29T07:08:53.884Z,94035.84
2023-03-29T07:11:46.955Z,94035.66
2023-03-29T07:14:27.951Z,94040.91
2023-03-29T07:16:58.670Z,94026.09
2023-03-29T07:19:33.478Z,94026.44
2023-03-29T07:22:21.900Z,94025.69
2023-03-29T07:24:55.509Z,94004.97
2023-03-29T07:27:23.984Z,94017.28
2023-03-29T07:29:52.360Z,94021.63
2023-03-29T07:32:20.878Z,94009.31
2023-03-29T07:35:13.450Z,94020.56
2023-03-29T07:37:43.076Z,94024.75
2023-03-29T07:40:19.181Z,94026.66
2023-03-29T07:43:13.507Z,94018.75
2023-03-29T07:45:42.563Z,94005.66
2023-03-29T07:48:13.453Z,94006.41
2023-03-29T07:50:54.204Z,94012.84
2023-03-29T07:53:29.809Z,94014.97
2023-03-29T07:56:00.475Z,94007.69
2023-03-29T07:58:52.036Z,93992.28
2023-03-29T08:01:22.076Z,93992.00
2023-03-29T08:04:10.546Z,93987.59
2023-03-29T08:07:01.492Z,93986.03
2023-03-29T08:09:48.127Z,93986.81
2023-03-29T08:12:17.412Z,93986.94
2023-03-29T08:14:46.383Z,93985.38
2023-03-29T08:17:19.759Z,93980.84
2023-03-29T08:19:50.988Z,93971.41
2023-03-29T08:22:22.925Z,93965.50
2023-03-29T08:25:20.368Z,93963.53
2023-03-29T08:27:52.374Z,93974.69
2023-03-29T08:30:33.441Z,93970.91
2023-03-29T08:33:03.421Z,93977.09
2023-03-29T08:35:31.816Z,93963.69
2023-03-29T08:38:27.377Z,93972.00
2023-03-29T08:40:57.078Z,93969.59
2023-03-29T08:43:58.273Z,93963.13
2023-03-29T08:47:00.897Z,93970.94
2023-03-29T08:49:40.140Z,93967.97
2023-03-29T08:52:27.419Z,93959.63
2023-03-29T08:54:57.546Z,93949.19
2023-03-29T08:57:47.767Z,93947.16
2023-03-29T09:00:37.548Z,93965.81
2023-03-29T09:03:29.352Z,93964.22
2023-03-29T09:06:11.096Z,93970.84
2023-03-29T09:08:45.940Z,93955.88
2023-03-29T09:11:50.484Z,93946.97
2023-03-29T09:14:37.040Z,93958.78
2023-03-29T09:17:20.559Z,93947.41
2023-03-29T09:19:54.692Z,93954.66
2023-03-29T09:22:35.010Z,93950.59
2023-03-29T09:25:27.691Z,93946.25
2023-03-29T09:28:02.584Z,93920.63
2023-03-29T09:31:07.654Z,93926.16
2023-03-29T09:33:59.954Z,93940.06
2023-03-29T09:36:54.946Z,93913.78
2023-03-29T09:39:23.749Z,93938.56
2023-03-29T09:42:09.381Z,93923.69
2023-03-29T09:44:41.701Z,93938.44
2023-03-29T09:47:32.296Z,93957.34
2023-03-29T09:50:19.849Z,93930.53
2023-03-29T09:52:55.872Z,93923.91
2023-03-29T09:55:31.521Z,93924.34
2023-03-29T09:58:21.389Z,93942.44
2023-03-29T10:00:53.327Z,93955.09
2023-03-29T10:03:29.890Z,93946.94
2023-03-29T10:06:17.500Z,93932.66
2023-03-29T10:09:01.423Z,93937.53
2023-03-29T10:11:54.063Z,93913.97
2023-03-29T10:14:36.377Z,93931.63
2023-03-29T10:17:18.990Z,93925.78
2023-03-29T10:19:52.738Z,93931.88
2023-03-29T10:22:25.830Z,93927.16
2023-03-29T10:24:57.397Z,93922.28
2023-03-29T10:27:28.488Z,93907.69
2023-03-29T10:30:00.041Z,93902.38
2023-03-29T10:32:38.136Z,93915.84
2023-03-29T10:35:11.055Z,93909.91
2023-03-29T10:37:49.086Z,93906.31
2023-03-29T10:40:26.134Z,93891.00
2023-03-29T10:42:59.680Z,93901.13
2023-03-29T10:45:31.935Z,93894.91
2023-03-29T10:48:00.167Z,93888.56
2023-03-29T10:50:34.592Z,93907.59
2023-03-29T10:53:23.755Z,93885.41
2023-03-29T10:56:00.898Z,93881.53
2023-03-29T10:58:38.060Z,93870.41
2023-03-29T11:01:14.915Z,93866.13
2023-03-29T11:04:16.243Z,93870.34
2023-03-29T11:06:57.387Z,93891.66
2023-03-29T11:09:41.671Z,93887.53
2023-03-29T11:12:16.446Z,93882.53
2023-03-29T11:15:10.403Z,93846.66
2023-03-29T11:17:52.901Z,93868.63
2023-03-29T11:20:44.417Z,93868.25
2023-03-29T11:23:35.896Z,93839.44
2023-03-29T11:26:10.091Z,93859.69
2023-03-29T11:29:15.023Z,93862.28
2023-03-29T11:31:55.265Z,93872.34
2023-03-29T11:34:54.306Z,93855.47
2023-03-29T11:37:48.939Z,93864.59
2023-03-29T11:40:36.395Z,93875.63
2023-03-29T11:43:12.663Z,93876.22
2023-03-29T11:45:50.778Z,93879.00
2023-03-29T11:48:26.321Z,93873.25
2023-03-29T11:51:26.458Z,93882.25
2023-03-29T11:54:13.174Z,93894.25
2023-03-29T11:56:47.913Z,93878.00
2023-03-29T11:59:29.085Z,93866.31
2023-03-29T12:02:09.346Z,93865.03
2023-03-29T12:04:51.159Z,93873.22
2023-03-29T12:08:04.413Z,93869.56
2023-03-29T12:11:03.046Z,93867.81
2023-03-29T12:13:40.770Z,93862.16
2023-03-29T12:16:47.004Z,93860.16
2023-03-29T12:19:40.950Z,93838.63
2023-03-29T12:22:11.305Z,93857.19
2023-03-29T12:24:47.245Z,93852.09
2023-03-29T12:27:32.940Z,93869.91
2023-03-29T12:30:27.522Z,93859.34
2023-03-29T12:33:15.882Z,93855.91
2023-03-29T12:36:14.242Z,93869.69
2023-03-29T12:38:54.693Z,93884.59
2023-03-29T12:41:45.077Z,93861.69
2023-03-29T12:44:18.015Z,93868.44
2023-03-29T12:47:01.702Z,93873.19
2023-03-29T12:49:39.392Z,93862.94
2023-03-29T12:52:27.321Z,93853.38
2023-03-29T12:54:59.015Z,93866.63
2023-03-29T12:57:40.077Z,93872.09
2023-03-29T13:00:33.055Z,93873.53
2023-03-29T13:03:20.517Z,93874.34
2023-03-29T13:05:59.266Z,93875.41
2023-03-29T13:08:36.084Z,93866.44
2023-03-29T13:11:06.766Z,93875.25
2023-03-29T13:13:38.256Z,93874.75
2023-03-29T13:16:15.199Z,93878.25
2023-03-29T13:19:32.542Z,93878.69
2023-03-29T13:22:26.117Z,93874.28
2023-03-29T13:25:11.665Z,93864.47
2023-03-29T13:28:04.696Z,93841.47
2023-03-29T13:30:57.573Z,93857.19
2023-03-29T13:33:56.160Z,93861.91
2023-03-29T13:36:47.524Z,93879.47
2023-03-29T13:39:30.090Z,93865.81
2023-03-29T13:42:20.067Z,93859.25
2023-03-29T13:44:52.326Z,93864.25
2023-03-29T13:47:27.252Z,93870.38
2023-03-29T13:49:59.560Z,93862.63
2023-03-29T13:52:59.001Z,93862.38
2023-03-29T13:55:33.671Z,93869.88
2023-03-29T13:58:15.137Z,93857.28
2023-03-29T14:00:54.440Z,93872.34
2023-03-29T14:03:30.070Z,93848.41
2023-03-29T14:06:01.918Z,93880.75
2023-03-29T14:08:42.144Z,93883.66
2023-03-29T14:11:28.600Z,93842.78
2023-03-29T14:13:59.150Z,93889.53
2023-03-29T14:16:30.706Z,93882.66
2023-03-29T14:19:22.282Z,93831.00
2023-03-29T14:21:53.776Z,93863.94
2023-03-29T14:24:29.868Z,93868.03
2023-03-29T14:26:58.303Z,93874.97
2023-03-29T14:29:34.264Z,93864.59
2023-03-29T14:32:16.570Z,93876.94
2023-03-29T14:34:48.809Z,93874.00
2023-03-29T14:37:22.946Z,93864.69
2023-03-29T14:39:51.375Z,93856.13
2023-03-29T14:42:26.992Z,93872.59
2023-03-29T14:45:04.408Z,93872.63
2023-03-29T14:47:34.251Z,93871.09
2023-03-29T14:50:04.266Z,93883.03
2023-03-29T14:52:32.796Z,93879.47
2023-03-29T14:55:02.816Z,93880.69
2023-03-29T14:57:37.045Z,93887.25
2023-03-29T15:00:18.203Z,93895.38
2023-03-29T15:02:59.078Z,93895.94
2023-03-29T15:05:36.318Z,93887.81
2023-03-29T15:08:07.961Z,93894.28
2023-03-29T15:10:38.246Z,93877.69
2023-03-29T15:13:08.554Z,93886.09
2023-03-29T15:15:39.197Z,93894.41
2023-03-29T15:18:16.692Z,93892.84
2023-03-29T15:20:46.056Z,93907.34
2023-03-29T15:23:17.300Z,93906.25
2023-03-29T15:25:56.590Z,93905.47
2023-03-29T15:28:31.412Z,93888.13
2023-03-29T15:31:10.743Z,93911.28
2023-03-29T15:33:42.056Z,93912.16
2023-03-29T15:36:13.201Z,93917.28
2023-03-29T15:38:45.112Z,93925.38
2023-03-29T15:41:15.765Z,93920.13
2023-03-29T15:43:44.362Z,93925.09
2023-03-29T15:46:14.386Z,93926.19
2023-03-29T15:48:43.492Z,93931.66
2023-03-29T15:51:12.829Z,93926.38
2023-03-29T15:53:41.745Z,93930.56
2023-03-29T15:56:16.160Z,93931.94
2023-03-29T15:58:45.450Z,93924.41
2023-03-29T16:01:37.004Z,93932.94
2023-03-29T16:04:08.209Z,93950.91
2023-03-29T16:06:37.005Z,93946.50
2023-03-29T16:09:07.402Z,93957.91
2023-03-29T16:11:36.002Z,93946.91
2023-03-29T16:14:15.258Z,93955.25
2023-03-29T16:16:43.851Z,93950.19
2023-03-29T16:19:12.450Z,93947.66
2023-03-29T16:21:40.946Z,93950.53
2023-03-29T16:24:21.536Z,93951.97
2023-03-29T16:26:52.180Z,93957.50
2023-03-29T16:29:21.815Z,93956.31
2023-03-29T16:31:50.968Z,93965.06
2023-03-29T16:34:20.191Z,93967.34
2023-03-29T16:36:49.341Z,93966.75
2023-03-29T16:39:18.485Z,93968.19
2023-03-29T16:41:48.944Z,93977.34
2023-03-29T16:44:23.748Z,93972.69
2023-03-29T16:46:58.459Z,93982.03
2023-03-29T16:49:26.849Z,93980.22
2023-03-29T16:51:55.340Z,93981.81
2023-03-29T16:54:26.294Z,93985.25
2023-03-29T16:56:54.814Z,93988.09
2023-03-29T16:59:23.425Z,93986.50
2023-03-29T17:01:52.028Z,93988.72
2023-03-29T17:04:20.721Z,93991.34
2023-03-29T17:06:49.011Z,93992.78
2023-03-29T17:09:17.991Z,93992.56
2023-03-29T17:11:46.607Z,93998.06
2023-03-29T17:14:16.451Z,94000.72
2023-03-29T17:16:45.327Z,94007.00
2023-03-29T17:19:13.913Z,94011.88
2023-03-29T17:21:42.597Z,94007.97
2023-03-29T17:24:11.268Z,94009.22
2023-03-29T17:26:40.413Z,94008.78
2023-03-29T17:29:08.720Z,93999.25
2023-03-29T17:31:38.525Z,94014.44
2023-03-29T17:34:06.987Z,94010.84
2023-03-29T17:36:37.793Z,94004.53
2023-03-29T17:39:06.668Z,94018.75
2023-03-29T17:41:35.425Z,94025.84
2023-03-29T17:44:03.954Z,94019.53
2023-03-29T17:46:32.664Z,94026.53
2023-03-29T17:49:01.238Z,94022.69
2023-03-29T17:51:29.861Z,94023.91
2023-03-29T17:53:58.626Z,94030.63
2023-03-29T17:56:27.052Z,94027.41
2023-03-29T17:58:55.789Z,94033.28
2023-03-29T18:01:24.345Z,94033.91
2023-03-29T18:03:52.823Z,94038.16
2023-03-29T18:06:21.703Z,94037.53
2023-03-29T18:08:50.305Z,94040.81
2023-03-29T18:11:23.066Z,94034.75
2023-03-29T18:13:52.711Z,94037.78
2023-03-29T18:16:22.609Z,94033.72
2023-03-29T18:18:52.377Z,94052.81
2023-03-29T18:21:20.524Z,94042.63
2023-03-29T18:23:50.151Z,94055.44
2023-03-29T18:26:18.502Z,94056.47
2023-03-29T18:28:47.513Z,94049.31
2023-03-29T18:31:16.704Z,94051.59
2023-03-29T18:33:45.426Z,94063.38
2023-03-29T18:36:14.272Z,94047.88
2023-03-29T18:38:44.080Z,94058.91
2023-03-29T18:41:14.632Z,94048.72
2023-03-29T18:43:44.604Z,94046.69
2023-03-29T18:46:13.425Z,94051.78
2023-03-29T18:48:42.306Z,94049.75
2023-03-29T18:51:11.429Z,94061.78
2023-03-29T18:53:41.995Z,94042.06
2023-03-29T18:56:11.584Z,94053.66
2023-03-29T18:58:40.123Z,94053.88
2023-03-29T19:01:09.941Z,94055.31
2023-03-29T19:03:38.865Z,94037.81
2023-03-29T19:06:08.456Z,94047.19
2023-03-29T19:08:41.642Z,94029.91
2023-03-29T19:11:14.487Z,94040.06
2023-03-29T19:13:43.281Z,94035.59
2023-03-29T19:16:12.527Z,94048.81
2023-03-29T19:18:41.238Z,94036.41
2023-03-29T19:21:09.996Z,94042.28
2023-03-29T19:23:39.443Z,94044.69
2023-03-29T19:26:09.080Z,94043.28
2023-03-29T19:28:37.728Z,94035.16
2023-03-29T19:31:07.575Z,94039.22
2023-03-29T19:33:35.815Z,94043.84
2023-03-29T19:36:04.332Z,94037.97
2023-03-29T19:38:32.695Z,94035.94
2023-03-29T19:41:00.828Z,94038.19
2023-03-29T19:43:29.396Z,94033.50
2023-03-29T19:46:05.183Z,94040.38
2023-03-29T19:48:33.670Z,94039.75
2023-03-29T19:55:33.541Z,94033.50
2023-03-29T19:58:01.982Z,94037.34
2023-03-29T20:00:32.168Z,94038.78
2023-03-29T20:03:01.589Z,94037.34
2023-03-29T20:05:30.238Z,94020.06
2023-03-29T20:07:58.603Z,94040.19
2023-03-29T20:10:27.125Z,94039.22
2023-03-29T20:12:57.203Z,94035.78
2023-03-29T20:15:26.357Z,94031.28
2023-03-29T20:17:59.444Z,94041.25
2023-03-29T20:20:28.732Z,94038.81
2023-03-29T20:23:05.168Z,94033.56
2023-03-29T20:25:36.511Z,94042.06
2023-03-29T20:28:05.001Z,94031.72
2023-03-29T20:30:33.285Z,94039.84
2023-03-29T20:33:01.582Z,94025.84
2023-03-29T20:35:29.665Z,94037.44
2023-03-29T20:37:58.050Z,94032.16
2023-03-29T20:40:26.240Z,94022.59
2023-03-29T20:42:54.645Z,94032.53
2023-03-29T20:45:23.126Z,94034.56
2023-03-29T20:47:57.937Z,94019.56
2023-03-29T20:50:26.801Z,94029.50
2023-03-29T20:52:55.982Z,94027.25
2023-03-29T20:55:24.261Z,94033.38
2023-03-29T20:57:54.519Z,94026.88
2023-03-29T21:00:22.759Z,94032.75
2023-03-29T21:02:52.540Z,94026.84
2023-03-29T21:05:20.936Z,94034.78
2023-03-29T21:07:48.918Z,94033.16
2023-03-29T21:10:17.550Z,94034.16
2023-03-29T21:12:45.544Z,94029.91
2023-03-29T21:15:18.088Z,94032.94
2023-03-29T21:17:47.745Z,94032.56
2023-03-29T21:20:16.454Z,94030.72
2023-03-29T21:22:47.417Z,94023.41
2023-03-29T21:25:16.123Z,94024.41
2023-03-29T21:27:44.350Z,94023.41
2023-03-29T21:30:12.787Z,94024.22
2023-03-29T21:32:41.373Z,94030.50
2023-03-29T21:35:10.740Z,94019.97
2023-03-29T21:37:38.894Z,94024.22
2023-03-29T21:40:08.890Z,94021.56
2023-03-29T21:42:37.223Z,94016.91
2023-03-29T21:45:06.000Z,94021.38
2023-03-29T21:47:34.431Z,94012.41
2023-03-29T21:50:02.435Z,94019.72
2023-03-29T21:52:30.596Z,94018.50
2023-03-29T21:54:58.548Z,94022.41
2023-03-29T21:57:26.841Z,94021.97
2023-03-29T21:59:54.809Z,94023.19
2023-03-29T22:02:22.953Z,94021.97
2023-03-29T22:04:50.902Z,94015.06
2023-03-29T22:07:22.953Z,94014.03
2023-03-29T22:09:50.998Z,94010.38
2023-03-29T22:12:19.106Z,94007.75
2023-03-29T22:14:47.306Z,94017.69
2023-03-29T22:17:16.210Z,94003.88
2023-03-29T22:19:44.545Z,94007.94
2023-03-29T22:22:14.650Z,94003.44
2023-03-29T22:24:45.226Z,94000.22
2023-03-29T22:27:13.341Z,93998.97
2023-03-29T22:29:41.186Z,93996.31
2023-03-29T22:32:09.396Z,94007.09
2023-03-29T22:34:37.405Z,93996.34
2023-03-29T22:37:05.554Z,94000.78
2023-03-29T22:39:37.039Z,93998.53
2023-03-29T22:42:05.036Z,93998.34
2023-03-29T22:44:34.093Z,93998.13
2023-03-29T22:47:02.038Z,93997.75
2023-03-29T22:49:30.139Z,94007.88
2023-03-29T22:51:58.100Z,94003.22
2023-03-29T22:54:26.222Z,94000.16
2023-03-29T22:56:54.165Z,94002.97
2023-03-29T22:59:22.219Z,93998.72
2023-03-29T23:01:50.296Z,94005.00
2023-03-29T23:04:18.387Z,93997.28
2023-03-29T23:06:49.509Z,93998.25
2023-03-29T23:09:17.481Z,94001.13
2023-03-29T23:11:46.168Z,93985.69
2023-03-29T23:14:15.116Z,94005.63
2023-03-29T23:16:43.083Z,93993.03
2023-03-29T23:19:11.253Z,93992.81
2023-03-29T23:21:39.232Z,93991.03
2023-03-29T23:24:07.463Z,93984.69
2023-03-29T23:26:35.976Z,93991.84
2023-03-29T23:29:04.721Z,93992.03
2023-03-29T23:31:33.933Z,93996.72
2023-03-29T23:34:03.440Z,93986.97
2023-03-29T23:36:31.783Z,93995.69
2023-03-29T23:38:59.841Z,93983.31
2023-03-29T23:41:28.448Z,93985.38
2023-03-29T23:43:58.073Z,93991.25
2023-03-29T23:46:26.280Z,93995.50
2023-03-29T23:48:54.837Z,93989.63
2023-03-29T23:51:23.486Z,93992.06
2023-03-29T23:53:52.019Z,93981.91
2023-03-29T23:56:21.592Z,93989.22
2023-03-29T23:58:49.985Z,93986.97
